createdAt,value
2019-01-30T00:01:58.020Z,93.26
2019-01-30T00:04:24.599Z,92.96
2019-01-30T00:06:51.142Z,92.71
2019-01-30T00:09:17.726Z,92.48
2019-01-30T00:11:44.279Z,92.37
2019-01-30T00:14:10.857Z,92.74
2019-01-30T00:16:37.402Z,92.64
2019-01-30T00:19:04.080Z,92.98
2019-01-30T00:21:30.677Z,92.77
2019-01-30T00:23:57.221Z,92.53
2019-01-30T00:26:23.768Z,92.56
2019-01-30T00:28:50.337Z,92.74
2019-01-30T00:31:16.887Z,92.76
2019-01-30T00:33:43.447Z,92.51
2019-01-30T00:36:10.026Z,92.34
2019-01-30T00:38:36.579Z,92.00
2019-01-30T00:41:03.145Z,92.16
2019-01-30T00:43:29.685Z,92.01
2019-01-30T00:45:56.254Z,91.80
2019-01-30T00:48:22.798Z,92.05
2019-01-30T00:50:49.363Z,91.32
2019-01-30T00:53:15.901Z,91.63
2019-01-30T00:55:42.470Z,91.97
2019-01-30T00:58:09.043Z,91.97
2019-01-30T01:00:35.590Z,92.32
2019-01-30T01:03:02.164Z,91.64
2019-01-30T01:05:28.739Z,91.35
2019-01-30T01:07:55.295Z,91.41
2019-01-30T01:10:22.048Z,91.88
2019-01-30T01:12:48.631Z,91.89
2019-01-30T01:15:15.259Z,91.87
2019-01-30T01:17:41.812Z,91.78
2019-01-30T01:20:10.384Z,92.02
2019-01-30T01:22:36.960Z,92.08
2019-01-30T01:25:04.852Z,92.26
2019-01-30T01:27:31.426Z,92.48
2019-01-30T01:29:57.981Z,92.14
2019-01-30T01:32:24.549Z,91.92
2019-01-30T01:34:51.095Z,91.97
2019-01-30T01:37:17.653Z,92.62
2019-01-30T01:39:44.233Z,92.42
2019-01-30T01:42:10.794Z,92.53
2019-01-30T01:44:37.334Z,92.39
2019-01-30T01:47:03.910Z,92.30
2019-01-30T01:49:30.477Z,92.36
2019-01-30T01:51:57.022Z,92.21
2019-01-30T01:54:23.590Z,91.76
2019-01-30T01:56:50.157Z,91.75
2019-01-30T01:59:16.742Z,91.66
2019-01-30T02:01:43.289Z,91.55
2019-01-30T02:04:09.853Z,91.11
2019-01-30T02:06:36.420Z,90.78
2019-01-30T02:11:38.034Z,90.37
2019-01-30T02:14:04.583Z,90.30
2019-01-30T02:16:31.149Z,90.26
2019-01-30T02:18:57.710Z,90.09
2019-01-30T02:21:24.251Z,90.33
2019-01-30T02:23:50.826Z,89.48
2019-01-30T02:26:17.376Z,89.80
2019-01-30T02:28:43.949Z,89.50
2019-01-30T02:31:10.493Z,89.11
2019-01-30T02:33:37.068Z,89.10
2019-01-30T02:36:03.700Z,89.28
2019-01-30T02:38:30.333Z,88.92
2019-01-30T02:40:56.836Z,88.93
2019-01-30T02:43:23.397Z,88.45
2019-01-30T02:45:49.944Z,88.87
2019-01-30T02:48:16.533Z,89.56
2019-01-30T02:50:43.086Z,89.07
2019-01-30T02:53:09.673Z,88.65
2019-01-30T02:55:36.209Z,88.23
2019-01-30T02:58:02.777Z,88.13
2019-01-30T03:00:30.164Z,88.20
2019-01-30T03:02:56.702Z,87.61
2019-01-30T03:05:23.771Z,87.84
2019-01-30T03:07:50.346Z,87.60
2019-01-30T03:10:17.168Z,87.00
2019-01-30T03:12:43.718Z,87.39
2019-01-30T03:15:11.070Z,87.44
2019-01-30T03:17:37.661Z,87.77
2019-01-30T03:20:05.882Z,86.61
2019-01-30T03:22:32.457Z,86.86
2019-01-30T03:24:59.032Z,87.12
2019-01-30T03:27:25.599Z,86.54
2019-01-30T03:29:52.167Z,86.63
2019-01-30T03:32:18.719Z,86.43
2019-01-30T03:34:45.292Z,87.08
2019-01-30T03:37:11.841Z,86.95
2019-01-30T03:39:38.413Z,87.14
2019-01-30T03:42:04.957Z,87.20
2019-01-30T03:44:31.532Z,87.40
2019-01-30T03:46:58.082Z,87.39
2019-01-30T03:49:24.669Z,87.87
2019-01-30T03:51:51.226Z,87.51
2019-01-30T03:54:17.803Z,87.53
2019-01-30T03:56:44.352Z,87.45
2019-01-30T03:59:10.926Z,87.50
2019-01-30T04:01:37.483Z,86.15
2019-01-30T04:04:04.050Z,86.28
2019-01-30T04:06:30.753Z,86.20
2019-01-30T04:08:57.300Z,86.03
2019-01-30T04:11:23.907Z,86.55
2019-01-30T04:13:50.466Z,86.30
2019-01-30T04:16:17.022Z,86.43
2019-01-30T04:18:43.592Z,85.82
2019-01-30T04:21:10.133Z,86.19
2019-01-30T04:23:36.729Z,85.66
2019-01-30T04:26:03.276Z,85.33
2019-01-30T04:28:29.808Z,85.40
2019-01-30T04:30:56.378Z,85.79
2019-01-30T04:33:22.946Z,86.17
2019-01-30T04:35:49.512Z,86.00
2019-01-30T04:38:16.060Z,85.30
2019-01-30T04:40:42.626Z,85.47
2019-01-30T04:43:09.179Z,85.93
2019-01-30T04:45:35.757Z,85.71
2019-01-30T04:48:02.304Z,86.16
2019-01-30T04:50:28.880Z,85.89
2019-01-30T04:52:55.429Z,86.16
2019-01-30T04:55:22.005Z,85.29
2019-01-30T04:57:48.542Z,84.85
2019-01-30T05:00:17.629Z,85.41
2019-01-30T05:02:44.211Z,85.20
2019-01-30T05:05:10.870Z,85.71
2019-01-30T05:07:37.422Z,85.47
2019-01-30T05:10:05.072Z,85.84
2019-01-30T05:12:31.621Z,85.54
2019-01-30T05:14:58.188Z,85.43
2019-01-30T05:17:24.736Z,85.04
2019-01-30T05:19:51.322Z,85.46
2019-01-30T05:22:17.880Z,85.66
2019-01-30T05:24:44.428Z,85.67
2019-01-30T05:27:10.996Z,85.70
2019-01-30T05:29:37.565Z,86.17
2019-01-30T05:32:04.145Z,85.56
2019-01-30T05:34:30.741Z,85.75
2019-01-30T05:36:57.265Z,85.54
2019-01-30T05:39:23.829Z,85.72
2019-01-30T05:41:50.370Z,86.27
2019-01-30T05:44:16.944Z,85.78
2019-01-30T05:46:43.518Z,85.85
2019-01-30T05:49:10.089Z,86.04
2019-01-30T05:51:36.637Z,85.59
2019-01-30T05:54:03.319Z,85.56
2019-01-30T05:56:29.911Z,85.79
2019-01-30T05:58:56.467Z,85.43
2019-01-30T06:01:23.045Z,85.50
2019-01-30T06:03:49.584Z,85.54
2019-01-30T06:06:16.186Z,84.78
2019-01-30T06:08:42.737Z,84.79
2019-01-30T06:11:12.077Z,84.95
2019-01-30T06:13:37.892Z,85.27
2019-01-30T06:16:04.468Z,85.20
2019-01-30T06:18:31.022Z,85.05
2019-01-30T06:20:57.612Z,85.24
2019-01-30T06:23:24.155Z,84.96
2019-01-30T06:25:50.703Z,85.35
2019-01-30T06:28:17.269Z,84.86
2019-01-30T06:30:43.808Z,85.03
2019-01-30T06:33:10.375Z,84.56
2019-01-30T06:35:36.931Z,84.59
2019-01-30T06:38:03.515Z,84.49
2019-01-30T06:40:31.741Z,84.58
2019-01-30T06:42:58.315Z,84.33
2019-01-30T06:45:24.885Z,84.90
2019-01-30T06:47:51.460Z,84.88
2019-01-30T06:50:18.023Z,84.53
2019-01-30T06:52:44.567Z,84.44
2019-01-30T06:55:11.133Z,84.70
2019-01-30T06:57:37.708Z,84.18
2019-01-30T07:00:15.510Z,84.28
2019-01-30T07:02:42.095Z,84.32
2019-01-30T07:05:08.625Z,83.94
2019-01-30T07:07:35.195Z,84.14
2019-01-30T07:10:02.154Z,83.83
2019-01-30T07:12:28.717Z,83.20
2019-01-30T07:14:55.261Z,83.32
2019-01-30T07:17:21.831Z,83.14
2019-01-30T07:19:48.389Z,82.65
2019-01-30T07:22:14.957Z,82.70
2019-01-30T07:24:41.546Z,82.50
2019-01-30T07:27:08.082Z,82.11
2019-01-30T07:29:34.657Z,81.79
2019-01-30T07:32:01.197Z,81.69
2019-01-30T07:34:27.788Z,81.50
2019-01-30T07:36:54.346Z,81.25
2019-01-30T07:39:20.911Z,80.96
2019-01-30T07:41:47.463Z,80.30
2019-01-30T07:44:14.042Z,80.08
2019-01-30T07:46:40.589Z,79.87
2019-01-30T07:49:07.161Z,79.44
2019-01-30T07:51:33.718Z,79.00
2019-01-30T07:54:00.295Z,78.92
2019-01-30T07:56:28.924Z,78.61
2019-01-30T07:58:55.300Z,78.05
2019-01-30T08:01:22.233Z,77.46
2019-01-30T08:03:48.925Z,77.39
2019-01-30T08:06:15.477Z,77.28
2019-01-30T08:08:42.045Z,76.61
2019-01-30T08:11:08.634Z,76.71
2019-01-30T08:13:35.207Z,76.34
2019-01-30T08:16:01.758Z,75.80
2019-01-30T08:18:28.309Z,75.87
2019-01-30T08:20:54.878Z,75.27
2019-01-30T08:23:21.479Z,76.04
2019-01-30T08:25:48.247Z,75.40
2019-01-30T08:28:15.908Z,74.42
2019-01-30T08:30:43.332Z,75.06
2019-01-30T08:33:10.127Z,74.36
2019-01-30T08:35:36.769Z,73.06
2019-01-30T08:38:03.571Z,72.70
2019-01-30T08:40:30.153Z,74.75
2019-01-30T08:42:56.693Z,73.67
2019-01-30T08:45:25.492Z,71.77
2019-01-30T08:47:52.034Z,72.33
2019-01-30T08:50:18.597Z,70.80
2019-01-30T08:52:45.142Z,70.29
2019-01-30T08:55:11.727Z,70.59
2019-01-30T08:57:38.285Z,70.77
2019-01-30T09:00:07.015Z,70.75
2019-01-30T09:02:33.578Z,70.16
2019-01-30T09:05:00.336Z,70.01
2019-01-30T09:07:26.901Z,69.26
2019-01-30T09:09:53.503Z,70.01
2019-01-30T09:12:20.050Z,67.41
2019-01-30T09:14:46.623Z,67.64
2019-01-30T09:17:13.176Z,67.84
2019-01-30T09:19:39.752Z,67.25
2019-01-30T09:22:06.305Z,66.57
2019-01-30T09:24:32.846Z,66.55
2019-01-30T09:26:59.405Z,65.76
2019-01-30T09:29:25.960Z,66.66
2019-01-30T09:31:52.533Z,65.71
2019-01-30T09:34:19.114Z,67.05
2019-01-30T09:36:45.718Z,65.97
2019-01-30T09:39:12.289Z,65.71
2019-01-30T09:41:38.863Z,65.29
2019-01-30T09:44:06.223Z,66.63
2019-01-30T09:46:32.829Z,65.09
2019-01-30T09:48:59.377Z,65.15
2019-01-30T09:51:25.962Z,65.88
2019-01-30T09:53:52.557Z,64.60
2019-01-30T09:56:19.109Z,64.92
2019-01-30T09:58:45.636Z,63.28
2019-01-30T10:01:12.236Z,62.73
2019-01-30T10:03:38.791Z,63.45
2019-01-30T10:06:05.355Z,63.67
2019-01-30T10:08:31.910Z,63.92
2019-01-30T10:10:58.492Z,62.23
2019-01-30T10:13:25.025Z,62.80
2019-01-30T10:15:51.978Z,63.76
2019-01-30T10:18:18.576Z,61.31
2019-01-30T10:20:46.179Z,60.77
2019-01-30T10:23:12.745Z,60.66
2019-01-30T10:25:39.296Z,61.20
2019-01-30T10:28:15.879Z,60.89
2019-01-30T10:30:36.187Z,62.49
2019-01-30T10:33:02.799Z,62.66
2019-01-30T10:35:29.351Z,62.44
2019-01-30T10:37:55.958Z,63.80
2019-01-30T10:40:22.515Z,62.58
2019-01-30T10:42:49.940Z,64.26
2019-01-30T10:45:16.479Z,65.58
2019-01-30T10:47:43.053Z,64.45
2019-01-30T10:50:11.368Z,65.43
2019-01-30T10:52:37.942Z,64.83
2019-01-30T10:55:06.269Z,65.33
2019-01-30T10:57:32.851Z,64.69
2019-01-30T10:59:59.403Z,65.11
2019-01-30T11:02:25.996Z,64.82
2019-01-30T11:04:52.553Z,64.58
2019-01-30T11:07:19.117Z,66.15
2019-01-30T11:09:45.684Z,64.81
2019-01-30T11:12:12.261Z,64.36
2019-01-30T11:14:41.035Z,62.97
2019-01-30T11:17:08.720Z,64.42
2019-01-30T11:19:35.720Z,63.13
2019-01-30T11:22:02.386Z,63.16
2019-01-30T11:24:28.933Z,64.52
2019-01-30T11:26:55.487Z,62.70
2019-01-30T11:29:22.044Z,61.47
2019-01-30T11:31:48.595Z,62.08
2019-01-30T11:34:15.156Z,62.81
2019-01-30T11:36:41.696Z,63.90
2019-01-30T11:39:08.271Z,62.57
2019-01-30T11:41:34.824Z,63.16
2019-01-30T11:44:01.412Z,63.36
2019-01-30T11:46:27.961Z,62.91
2019-01-30T11:48:56.385Z,64.68
2019-01-30T11:51:22.977Z,63.36
2019-01-30T11:53:49.552Z,64.62
2019-01-30T11:56:16.104Z,64.68
2019-01-30T11:58:42.679Z,64.88
2019-01-30T12:01:09.564Z,63.54
2019-01-30T12:03:36.125Z,64.53
2019-01-30T12:06:02.672Z,65.24
2019-01-30T12:08:29.244Z,65.23
2019-01-30T12:10:55.811Z,65.53
2019-01-30T12:13:22.378Z,64.04
2019-01-30T12:15:48.931Z,65.69
2019-01-30T12:18:15.530Z,66.47
2019-01-30T12:20:42.079Z,65.42
2019-01-30T12:23:08.656Z,65.75
2019-01-30T12:25:35.244Z,66.62
2019-01-30T12:28:01.783Z,66.83
2019-01-30T12:30:28.369Z,67.71
2019-01-30T12:32:54.923Z,66.81
2019-01-30T12:35:21.501Z,68.01
2019-01-30T12:37:48.067Z,69.00
2019-01-30T12:40:16.328Z,68.91
2019-01-30T12:42:42.894Z,66.81
2019-01-30T12:45:13.192Z,66.09
2019-01-30T12:47:39.745Z,66.19
2019-01-30T12:50:07.534Z,67.48
2019-01-30T12:52:34.210Z,65.76
2019-01-30T12:55:00.777Z,64.52
2019-01-30T12:57:27.322Z,67.21
2019-01-30T12:59:53.902Z,67.21
2019-01-30T13:02:20.439Z,67.39
2019-01-30T13:04:47.013Z,67.06
2019-01-30T13:07:13.566Z,67.90
2019-01-30T13:09:40.154Z,65.86
2019-01-30T13:12:06.689Z,65.76
2019-01-30T13:14:33.253Z,66.99
2019-01-30T13:16:59.806Z,66.68
2019-01-30T13:19:26.389Z,66.06
2019-01-30T13:21:52.942Z,65.04
2019-01-30T13:24:19.813Z,65.96
2019-01-30T13:26:46.390Z,65.82
2019-01-30T13:29:12.937Z,67.12
2019-01-30T13:31:39.505Z,69.26
2019-01-30T13:34:06.052Z,69.45
2019-01-30T13:36:32.622Z,68.39
2019-01-30T13:38:59.195Z,68.50
2019-01-30T13:41:25.746Z,67.33
2019-01-30T13:43:52.301Z,66.26
2019-01-30T13:46:18.877Z,67.06
2019-01-30T13:48:45.439Z,67.66
2019-01-30T13:51:12.030Z,68.42
2019-01-30T13:53:38.564Z,68.35
2019-01-30T13:56:05.156Z,69.07
2019-01-30T13:58:31.701Z,69.31
2019-01-30T14:00:58.260Z,69.59
2019-01-30T14:03:24.804Z,70.00
2019-01-30T14:05:51.397Z,70.36
2019-01-30T14:08:17.938Z,70.11
2019-01-30T14:10:44.511Z,71.29
2019-01-30T14:13:11.081Z,71.93
2019-01-30T14:15:37.706Z,71.50
2019-01-30T14:18:04.477Z,70.85
2019-01-30T14:20:31.032Z,71.85
2019-01-30T14:22:57.601Z,71.22
2019-01-30T14:25:24.154Z,70.89
2019-01-30T14:27:50.735Z,70.98
2019-01-30T14:30:25.141Z,71.48
2019-01-30T14:32:51.695Z,70.89
2019-01-30T14:35:18.602Z,70.70
2019-01-30T14:37:45.181Z,70.96
2019-01-30T14:40:12.173Z,72.14
2019-01-30T14:42:39.090Z,71.74
2019-01-30T14:45:07.438Z,71.00
2019-01-30T14:47:33.988Z,71.03
2019-01-30T14:50:00.630Z,71.94
2019-01-30T14:52:27.189Z,71.75
2019-01-30T14:54:53.754Z,72.01
2019-01-30T14:57:20.316Z,72.35
2019-01-30T14:59:46.870Z,72.95
2019-01-30T15:02:13.479Z,72.62
2019-01-30T15:04:40.011Z,72.05
2019-01-30T15:07:06.582Z,73.17
2019-01-30T15:09:33.156Z,72.07
2019-01-30T15:11:59.728Z,73.16
2019-01-30T15:14:26.234Z,72.72
2019-01-30T15:16:52.854Z,73.04
2019-01-30T15:19:19.387Z,73.43
2019-01-30T15:21:45.937Z,73.27
2019-01-30T15:24:12.485Z,72.64
2019-01-30T15:26:39.051Z,72.07
2019-01-30T15:29:05.606Z,72.28
2019-01-30T15:31:32.162Z,73.71
2019-01-30T15:33:58.824Z,73.73
2019-01-30T15:36:25.373Z,74.01
2019-01-30T15:38:51.950Z,74.85
2019-01-30T15:41:18.503Z,75.21
2019-01-30T15:43:45.071Z,74.95
2019-01-30T15:46:12.448Z,74.69
2019-01-30T15:48:39.036Z,74.98
2019-01-30T15:51:05.594Z,73.77
2019-01-30T15:53:32.169Z,74.85
2019-01-30T15:55:58.708Z,74.79
2019-01-30T15:58:25.287Z,74.30
2019-01-30T16:01:31.308Z,74.93
2019-01-30T16:03:57.891Z,75.63
2019-01-30T16:06:24.452Z,75.55
2019-01-30T16:11:17.210Z,73.59
2019-01-30T16:13:43.772Z,73.31
2019-01-30T16:16:10.327Z,74.05
2019-01-30T16:18:36.899Z,75.36
2019-01-30T16:21:03.452Z,74.68
2019-01-30T16:23:30.048Z,73.95
2019-01-30T16:25:56.587Z,74.46
2019-01-30T16:28:23.162Z,74.51
2019-01-30T16:30:49.715Z,74.82
2019-01-30T16:33:16.395Z,75.11
2019-01-30T16:35:42.939Z,75.44
2019-01-30T16:38:09.509Z,75.26
2019-01-30T16:40:36.076Z,75.52
2019-01-30T16:43:03.045Z,75.23
2019-01-30T16:45:29.626Z,74.75
2019-01-30T16:47:56.189Z,74.94
2019-01-30T16:50:22.731Z,75.33
2019-01-30T16:52:49.289Z,76.20
2019-01-30T16:55:16.349Z,75.04
2019-01-30T16:57:42.999Z,76.10
2019-01-30T17:00:15.996Z,76.19
2019-01-30T17:02:42.554Z,76.46
2019-01-30T17:05:11.123Z,76.07
2019-01-30T17:07:37.676Z,75.43
2019-01-30T17:10:06.230Z,75.44
2019-01-30T17:12:32.784Z,76.24
2019-01-30T17:14:59.356Z,74.84
2019-01-30T17:17:25.911Z,75.76
2019-01-30T17:19:52.481Z,75.87
2019-01-30T17:22:19.034Z,75.46
2019-01-30T17:24:45.772Z,76.53
2019-01-30T17:27:12.318Z,75.19
2019-01-30T17:29:38.898Z,75.51
2019-01-30T17:32:05.443Z,75.65
2019-01-30T17:34:32.010Z,75.69
2019-01-30T17:36:58.570Z,74.93
2019-01-30T17:39:25.249Z,75.51
2019-01-30T17:41:51.813Z,76.81
2019-01-30T17:44:18.394Z,76.41
2019-01-30T17:46:44.940Z,75.47
2019-01-30T17:49:11.510Z,75.40
2019-01-30T17:51:38.086Z,75.57
2019-01-30T17:54:04.662Z,75.51
2019-01-30T17:56:31.207Z,75.68
2019-01-30T17:58:57.989Z,75.41
2019-01-30T18:01:24.544Z,74.80
2019-01-30T18:03:51.090Z,75.61
2019-01-30T18:06:17.665Z,75.77
2019-01-30T18:08:44.227Z,75.90
2019-01-30T18:11:10.911Z,75.11
2019-01-30T18:13:37.457Z,75.36
2019-01-30T18:16:04.022Z,75.84
2019-01-30T18:18:30.573Z,77.03
2019-01-30T18:20:57.143Z,76.93
2019-01-30T18:23:24.101Z,75.65
2019-01-30T18:25:50.679Z,75.51
2019-01-30T18:28:17.245Z,75.62
2019-01-30T18:30:43.811Z,75.40
2019-01-30T18:33:10.412Z,76.36
2019-01-30T18:35:36.978Z,76.19
2019-01-30T18:38:04.494Z,76.08
2019-01-30T18:40:31.084Z,76.35
2019-01-30T18:42:57.644Z,76.29
2019-01-30T18:45:24.427Z,76.34
2019-01-30T18:47:50.955Z,76.42
2019-01-30T18:50:19.487Z,76.61
2019-01-30T18:52:46.030Z,76.23
2019-01-30T18:55:12.614Z,76.69
2019-01-30T18:57:39.281Z,77.20
2019-01-30T19:00:10.847Z,76.90
2019-01-30T19:02:37.398Z,77.19
2019-01-30T19:05:05.228Z,77.10
2019-01-30T19:07:31.804Z,77.19
2019-01-30T19:09:58.377Z,77.81
2019-01-30T19:12:24.951Z,77.26
2019-01-30T19:14:53.169Z,76.94
2019-01-30T19:17:19.727Z,79.18
2019-01-30T19:19:46.259Z,79.81
2019-01-30T19:22:12.835Z,78.92
2019-01-30T19:24:39.380Z,78.67
2019-01-30T19:27:05.990Z,80.07
2019-01-30T19:29:32.896Z,79.30
2019-01-30T19:31:59.582Z,79.74
2019-01-30T19:34:26.127Z,79.70
2019-01-30T19:37:02.940Z,80.10
2019-01-30T19:39:21.161Z,80.39
2019-01-30T19:41:50.227Z,80.46
2019-01-30T19:44:19.140Z,81.04
2019-01-30T19:46:45.704Z,79.82
2019-01-30T19:49:12.267Z,80.44
2019-01-30T19:51:38.826Z,79.72
2019-01-30T19:54:05.392Z,80.49
2019-01-30T19:56:31.958Z,80.95
2019-01-30T19:58:58.507Z,81.40
2019-01-30T20:01:35.726Z,81.11
2019-01-30T20:03:53.584Z,81.45
2019-01-30T20:06:20.141Z,81.76
2019-01-30T20:08:46.688Z,81.16
2019-01-30T20:11:13.302Z,81.57
2019-01-30T20:13:39.884Z,81.35
2019-01-30T20:16:06.482Z,81.26
2019-01-30T20:21:01.787Z,81.33
2019-01-30T20:23:28.330Z,82.07
2019-01-30T20:25:54.908Z,81.18
2019-01-30T20:28:21.452Z,80.66
2019-01-30T20:30:48.025Z,81.14
2019-01-30T20:33:14.595Z,81.43
2019-01-30T20:35:41.154Z,81.29
2019-01-30T20:38:07.724Z,82.04
2019-01-30T20:40:34.281Z,81.56
2019-01-30T20:43:00.822Z,81.69
2019-01-30T20:45:33.908Z,82.07
2019-01-30T20:47:55.850Z,81.42
2019-01-30T20:50:24.487Z,81.43
2019-01-30T20:52:51.057Z,81.97
2019-01-30T20:55:39.135Z,82.11
2019-01-30T20:58:05.826Z,82.48
2019-01-30T21:00:35.336Z,82.90
2019-01-30T21:03:02.465Z,82.62
2019-01-30T21:05:29.041Z,83.27
2019-01-30T21:07:55.687Z,83.81
2019-01-30T21:10:24.710Z,83.69
2019-01-30T21:12:51.276Z,84.14
2019-01-30T21:15:17.845Z,83.83
2019-01-30T21:17:44.411Z,84.59
2019-01-30T21:20:11.389Z,84.53
2019-01-30T21:22:37.959Z,84.20
2019-01-30T21:25:07.596Z,84.59
2019-01-30T21:27:34.176Z,84.73
2019-01-30T21:30:00.723Z,84.44
2019-01-30T21:32:27.276Z,84.35
2019-01-30T21:34:53.815Z,83.67
2019-01-30T21:37:20.685Z,84.24
2019-01-30T21:39:47.436Z,83.89
2019-01-30T21:42:14.054Z,84.37
2019-01-30T21:44:40.608Z,83.59
2019-01-30T21:47:07.151Z,83.37
2019-01-30T21:49:33.840Z,83.20
2019-01-30T21:52:00.380Z,83.48
2019-01-30T21:54:26.947Z,83.27
2019-01-30T21:56:53.502Z,83.78
2019-01-30T21:59:20.083Z,83.59
2019-01-30T22:01:46.625Z,83.66
2019-01-30T22:04:13.195Z,84.42
2019-01-30T22:06:39.746Z,84.16
2019-01-30T22:09:06.530Z,84.00
2019-01-30T22:11:33.095Z,84.01
2019-01-30T22:13:59.686Z,83.62
2019-01-30T22:16:26.265Z,83.79
2019-01-30T22:18:52.818Z,83.57
2019-01-30T22:21:19.391Z,83.13
2019-01-30T22:23:45.956Z,83.23
2019-01-30T22:26:12.520Z,82.92
2019-01-30T22:28:39.085Z,83.24
2019-01-30T22:31:05.634Z,83.73
2019-01-30T22:33:32.215Z,83.02
2019-01-30T22:35:58.762Z,83.33
2019-01-30T22:38:25.370Z,82.78
2019-01-30T22:40:51.904Z,82.77
2019-01-30T22:43:18.469Z,83.56
2019-01-30T22:45:45.023Z,83.44
2019-01-30T22:48:11.590Z,83.93
2019-01-30T22:50:38.136Z,83.87
2019-01-30T22:53:04.696Z,83.55
2019-01-30T22:55:31.268Z,83.40
2019-01-30T22:57:57.830Z,83.37
2019-01-30T23:01:10.632Z,83.66
2019-01-30T23:03:50.544Z,83.91
2019-01-30T23:06:56.991Z,83.87
2019-01-30T23:10:05.653Z,83.86
2019-01-30T23:12:57.120Z,83.74
2019-01-30T23:15:30.356Z,84.19
2019-01-30T23:18:46.515Z,84.50
2019-01-30T23:21:17.690Z,84.58
2019-01-30T23:24:44.538Z,84.80
2019-01-30T23:27:19.040Z,84.96
2019-01-30T23:30:51.681Z,85.03
2019-01-30T23:33:32.811Z,85.05
2019-01-30T23:36:32.511Z,85.33
2019-01-30T23:39:41.100Z,84.98
2019-01-30T23:42:38.749Z,85.09
2019-01-30T23:45:43.577Z,84.93
2019-01-30T23:48:54.767Z,84.52
2019-01-30T23:52:06.799Z,84.78
2019-01-30T23:55:24.471Z,84.79
2019-01-30T23:58:23.049Z,84.34
